Goldsworthy, Australia
Current Conditions -  °F | °C
As of 3:00 PM on Friday 31 Oct 2014 (Local Time) from YPPD Reporting Station
Clear Clear  
Wind Chill: 95°   Ceiling: Unl
Heat Index: 95°   Visibility: 6mi
Dew Point: 54°   Wind: 24mph
Humidity: 25%   Direction: 300°WNW
Pressure: 29.71"   Gusts: NA
Location:  20.34°S, 119.52°E
Report Text: YPPD 310700Z AUTO 30021KT 9999 // NCD 35/12 Q1006
Loading
Personal Weather Stations






























Interactive Weather Map
Tropical Storm Tracking
New forecast layout! Learn more

10-Day Weather Forecast

Advertisements
Track Severe Weather on mobile